KPNC/PNC METAR and TAF weather

Enter ICAO airport designator
Station Type Date Time Source
KPNC METAR 2019/08/24 21:53 UTC NOAA

KPNC 242153Z AUTO 15007KT 10SM FEW050 29/22 A2991 RMK AO2 SLP117 T02890222


Station Type Date Time Source
KPNC Decoded METAR 2019/08/24 21:53 UTC NOAA

Station name not available
Aug 24, 2019 - 05:53 PM EDT / 2019.08.24 2153 UTC
Wind: from the SSE (150 degrees) at 8 MPH (7 KT):0
Visibility: 10 mile(s):0
Sky conditions: mostly clear
Temperature: 84.0 F (28.9 C)
Dew Point: 72.0 F (22.2 C)
Relative Humidity: 67%
Pressure (altimeter): 29.91 in. Hg (1012 hPa)
ob: KPNC 242153Z AUTO 15007KT 10SM FEW050 29/22 A2991 RMK AO2 SLP117 T02890222
cycle: 22

Station Type Date Time Source
KPNC TAF 2019/08/24 18:22 UTC NOAA

TAF KPNC 241720Z 2418/2518 14008KT P6SM BKN035
TEMPO 2418/2420 OVC020
FM250600 VRB25G35KT 3SM TSRA OVC015CB
FM251100 11020KT P6SM VCSH SCT015 OVC150

Example: see airport list